Time;durP1;ratioP1;P1;durP2;ratioP2;P2;SDS_P1;SDS_P2;PMS_P1;PMS_P2;Temp;Humidity;BMP_temperature;BMP_pressure;BME280_temperature;BME280_humidity;BME280_pressure;Samples;Min_cycle;Max_cycle;Signal;HPM_P1;HPM_P2
2024/01/17 00:02:12;;;;;;;8.00;5.13;;;-0.50;99.90;;;;;;4985489;28;20081;-77
2024/01/17 00:04:39;;;;;;;9.87;5.77;;;-0.50;99.90;;;;;;5034240;28;20409;-78
2024/01/17 00:07:06;;;;;;;9.83;5.43;;;-0.60;99.90;;;;;;4985609;28;20089;-77
2024/01/17 00:09:33;;;;;;;8.87;4.43;;;-0.60;99.90;;;;;;5014551;28;20068;-77
2024/01/17 00:12:04;;;;;;;10.80;7.07;;;-0.60;99.90;;;;;;5028297;28;20045;-77
2024/01/17 00:14:31;;;;;;;12.37;6.13;;;-0.60;99.90;;;;;;5002853;28;20072;-77
2024/01/17 00:16:59;;;;;;;11.77;6.17;;;-0.70;99.90;;;;;;4998520;28;20058;-77
2024/01/17 00:19:26;;;;;;;11.97;6.33;;;-0.70;99.90;;;;;;5011199;28;20112;-77
2024/01/17 00:21:53;;;;;;;10.33;5.43;;;-0.70;99.90;;;;;;4997450;28;20054;-77
2024/01/17 00:24:20;;;;;;;11.10;5.27;;;-0.70;99.90;;;;;;5031239;28;20445;-77
2024/01/17 00:26:47;;;;;;;9.63;5.50;;;-0.70;99.90;;;;;;5033736;28;20041;-77
2024/01/17 00:29:15;;;;;;;9.97;5.17;;;-0.70;99.90;;;;;;5027059;28;20100;-77
2024/01/17 00:31:43;;;;;;;10.77;5.63;;;-0.70;99.90;;;;;;5031998;28;20052;-77
2024/01/17 00:34:10;;;;;;;8.90;5.20;;;-0.70;99.90;;;;;;5014106;28;20046;-77
2024/01/17 00:36:37;;;;;;;9.00;4.90;;;-0.70;99.90;;;;;;5030544;28;20046;-77
2024/01/17 00:39:04;;;;;;;7.43;4.20;;;-0.70;99.90;;;;;;5014053;28;20402;-77
2024/01/17 00:41:32;;;;;;;8.27;4.73;;;-0.70;99.90;;;;;;4996208;28;20068;-77
2024/01/17 00:43:59;;;;;;;8.67;4.33;;;-0.70;99.90;;;;;;5017662;28;20050;-77
2024/01/17 00:46:26;;;;;;;7.97;4.97;;;-0.80;99.90;;;;;;5001310;28;20091;-77
2024/01/17 00:48:53;;;;;;;7.27;4.40;;;-0.80;99.90;;;;;;4987895;28;20049;-77
2024/01/17 00:51:24;;;;;;;8.53;3.77;;;-0.80;99.90;;;;;;5033509;28;20046;-77
2024/01/17 00:53:52;;;;;;;8.07;3.90;;;-0.80;99.90;;;;;;5017143;28;20490;-77
2024/01/17 00:56:20;;;;;;;9.87;4.10;;;-0.80;99.90;;;;;;5034819;28;20524;-77
2024/01/17 00:58:46;;;;;;;7.77;4.50;;;-0.80;99.90;;;;;;5012166;28;20052;-76
2024/01/17 01:01:13;;;;;;;6.30;4.07;;;-0.80;99.90;;;;;;5033810;28;20041;-77
2024/01/17 01:03:41;;;;;;;8.00;4.17;;;-0.80;99.90;;;;;;5033451;28;20045;-77
2024/01/17 01:06:08;;;;;;;8.30;4.50;;;-0.80;99.90;;;;;;5033164;28;20052;-77
2024/01/17 01:08:35;;;;;;;7.37;4.37;;;-0.80;99.90;;;;;;5003307;28;20046;-77
2024/01/17 01:11:02;;;;;;;8.07;3.83;;;-0.80;99.90;;;;;;5003154;28;20091;-77
2024/01/17 01:13:29;;;;;;;7.70;4.13;;;-0.80;99.90;;;;;;5016692;28;20041;-77
2024/01/17 01:15:56;;;;;;;6.80;3.57;;;-0.80;99.90;;;;;;5033176;28;20046;-78
2024/01/17 01:18:23;;;;;;;8.00;4.00;;;-0.80;99.90;;;;;;5016570;28;20042;-77
2024/01/17 01:20:50;;;;;;;9.40;4.27;;;-0.70;99.90;;;;;;5015891;28;20057;-77
2024/01/17 01:23:17;;;;;;;9.17;4.97;;;-0.70;99.90;;;;;;5016382;28;20057;-77
2024/01/17 01:25:44;;;;;;;7.00;3.90;;;-0.70;99.90;;;;;;5032921;28;20046;-77
2024/01/17 01:28:11;;;;;;;7.53;4.03;;;-0.70;99.90;;;;;;5032835;28;20068;-77
2024/01/17 01:30:38;;;;;;;6.97;4.40;;;-0.70;99.90;;;;;;5000087;28;20053;-77
2024/01/17 01:33:08;;;;;;;7.80;3.93;;;-0.70;99.90;;;;;;5018988;28;20038;-77
2024/01/17 01:35:35;;;;;;;9.87;4.60;;;-0.80;99.90;;;;;;5016320;28;20446;-77
2024/01/17 01:38:03;;;;;;;7.10;4.10;;;-0.80;99.90;;;;;;4982976;28;20084;-76
2024/01/17 01:40:30;;;;;;;6.80;3.33;;;-0.80;99.90;;;;;;4983953;28;20065;-77
2024/01/17 01:42:59;;;;;;;6.53;3.40;;;-0.90;99.90;;;;;;5013439;28;20053;-77
2024/01/17 01:45:26;;;;;;;5.47;2.27;;;-1.00;99.90;;;;;;5031684;28;20049;-77
2024/01/17 01:47:54;;;;;;;5.03;2.43;;;-1.00;99.90;;;;;;4996776;28;20060;-77
2024/01/17 01:50:21;;;;;;;4.67;2.30;;;-1.00;99.90;;;;;;5030484;28;20051;-77
2024/01/17 01:52:49;;;;;;;4.00;1.77;;;-1.10;99.90;;;;;;5032332;28;20050;-77
2024/01/17 01:55:16;;;;;;;3.93;1.83;;;-1.10;99.90;;;;;;5016436;28;20490;-77
2024/01/17 01:57:50;;;;;;;4.07;2.13;;;-1.10;99.90;;;;;;4991458;28;20104;-77
2024/01/17 02:00:17;;;;;;;3.37;1.40;;;-1.20;99.90;;;;;;5012577;28;20037;-77
2024/01/17 02:02:45;;;;;;;4.67;1.47;;;-1.20;99.90;;;;;;4999615;28;20104;-77
2024/01/17 02:05:13;;;;;;;3.67;1.80;;;-1.20;99.90;;;;;;4985981;28;20042;-77
2024/01/17 02:07:40;;;;;;;4.30;1.83;;;-1.20;99.90;;;;;;5002254;28;20080;-77
2024/01/17 02:10:08;;;;;;;3.50;1.70;;;-1.30;99.90;;;;;;4983481;28;20100;-78
2024/01/17 02:12:36;;;;;;;4.07;1.67;;;-1.30;99.90;;;;;;5000319;28;20045;-77
2024/01/17 02:15:03;;;;;;;4.30;1.87;;;-1.30;99.90;;;;;;5031391;28;20045;-77
2024/01/17 02:17:31;;;;;;;4.87;1.73;;;-1.40;99.90;;;;;;4996946;28;20045;-77
2024/01/17 02:19:58;;;;;;;4.67;1.93;;;-1.30;99.90;;;;;;5015715;28;20111;-77
2024/01/17 02:22:26;;;;;;;3.53;1.70;;;-1.40;99.90;;;;;;5027445;28;20912;-77
2024/01/17 02:24:53;;;;;;;2.90;1.63;;;-1.40;99.90;;;;;;5003601;28;20033;-77
2024/01/17 02:27:20;;;;;;;4.40;1.93;;;-1.40;99.90;;;;;;5012551;28;20037;-77
2024/01/17 02:29:48;;;;;;;4.73;2.10;;;-1.40;99.90;;;;;;5028283;28;20108;-77
2024/01/17 02:32:16;;;;;;;5.23;2.53;;;-1.40;99.90;;;;;;5012298;28;20104;-77
2024/01/17 02:34:43;;;;;;;6.53;2.70;;;-1.40;99.90;;;;;;5012782;28;20053;-77
2024/01/17 02:37:13;;;;;;;4.03;2.13;;;-1.40;99.90;;;;;;5015458;28;20128;-77
2024/01/17 02:39:40;;;;;;;6.90;2.70;;;-1.40;99.90;;;;;;5025929;28;20048;-77
2024/01/17 02:42:07;;;;;;;4.57;2.20;;;-1.50;99.90;;;;;;5014725;28;20073;-76
2024/01/17 02:44:35;;;;;;;4.83;2.27;;;-1.50;99.90;;;;;;4993783;28;20073;-77
2024/01/17 02:47:02;;;;;;;6.23;3.23;;;-1.50;99.90;;;;;;5013769;28;20042;-77
2024/01/17 02:49:29;;;;;;;3.93;2.13;;;-1.50;99.90;;;;;;4988858;28;20041;-77
2024/01/17 02:51:56;;;;;;;3.77;1.77;;;-1.50;99.90;;;;;;4992628;28;20042;-77
2024/01/17 02:54:23;;;;;;;4.37;1.90;;;-1.50;99.90;;;;;;5022395;28;20045;-76
2024/01/17 02:56:51;;;;;;;3.87;1.40;;;-1.50;99.90;;;;;;4999144;28;20041;-77
2024/01/17 02:59:18;;;;;;;5.90;2.27;;;-1.50;99.90;;;;;;4998903;28;20049;-77
2024/01/17 03:01:46;;;;;;;5.27;2.50;;;-1.50;99.90;;;;;;5015296;28;20117;-77
2024/01/17 03:04:13;;;;;;;6.27;2.60;;;-1.50;99.90;;;;;;5031403;28;20050;-77
2024/01/17 03:06:40;;;;;;;4.57;2.33;;;-1.50;99.90;;;;;;5011829;28;20041;-76
2024/01/17 03:09:07;;;;;;;6.27;2.83;;;-1.50;99.90;;;;;;5013324;28;20414;-77
2024/01/17 03:11:34;;;;;;;5.57;2.43;;;-1.50;99.90;;;;;;5015066;28;20049;-77
2024/01/17 03:14:01;;;;;;;5.03;2.67;;;-1.50;99.90;;;;;;4998878;28;20052;-76
2024/01/17 03:16:28;;;;;;;6.33;3.37;;;-1.50;99.90;;;;;;5011847;28;20050;-77
2024/01/17 03:18:55;;;;;;;7.47;3.90;;;-1.40;99.90;;;;;;5010184;28;20100;-77
2024/01/17 03:21:23;;;;;;;8.20;4.50;;;-1.50;99.90;;;;;;5015168;28;20553;-77
2024/01/17 03:23:50;;;;;;;5.93;3.63;;;-1.50;99.90;;;;;;5031131;28;20041;-77
2024/01/17 03:26:18;;;;;;;7.67;4.83;;;-1.50;99.90;;;;;;4994622;28;20049;-77
2024/01/17 03:28:45;;;;;;;6.00;3.50;;;-1.40;99.90;;;;;;4991404;28;20050;-76
2024/01/17 03:31:12;;;;;;;9.00;3.30;;;-1.40;99.90;;;;;;4994160;28;20398;-77
2024/01/17 03:33:39;;;;;;;6.73;4.00;;;-1.40;99.90;;;;;;4992578;28;20056;-76
2024/01/17 03:36:07;;;;;;;8.23;4.13;;;-1.40;99.90;;;;;;5004174;28;20605;-77
2024/01/17 03:38:34;;;;;;;8.50;4.20;;;-1.40;99.90;;;;;;5029783;28;20056;-77
2024/01/17 03:41:01;;;;;;;9.43;3.93;;;-1.40;99.90;;;;;;5014786;28;20474;-77
2024/01/17 03:43:28;;;;;;;6.43;3.90;;;-1.40;99.90;;;;;;5000998;28;20053;-77
2024/01/17 03:45:57;;;;;;;7.93;4.47;;;-1.40;99.90;;;;;;5011505;28;20057;-77
2024/01/17 03:48:24;;;;;;;6.30;3.77;;;-1.40;99.90;;;;;;4994437;28;20049;-77
2024/01/17 03:50:51;;;;;;;6.33;3.60;;;-1.40;99.90;;;;;;5031203;28;20042;-77
2024/01/17 03:53:18;;;;;;;9.17;4.63;;;-1.40;99.90;;;;;;4994262;28;20144;-77
2024/01/17 03:55:45;;;;;;;9.20;3.43;;;-1.40;99.90;;;;;;5034587;28;20060;-78
2024/01/17 03:58:12;;;;;;;5.87;3.10;;;-1.40;99.90;;;;;;5034632;28;20049;-78
2024/01/17 04:00:39;;;;;;;7.27;3.10;;;-1.40;99.90;;;;;;4997584;28;20104;-79
2024/01/17 04:03:13;;;;;;;6.60;3.00;;;-1.40;99.90;;;;;;5027120;28;20148;-78
2024/01/17 04:05:44;;;;;;;7.13;3.17;;;-1.40;99.90;;;;;;5001758;28;20045;-77
2024/01/17 04:08:11;;;;;;;4.43;2.17;;;-1.40;99.90;;;;;;5034307;28;20029;-77
2024/01/17 04:10:38;;;;;;;5.90;2.70;;;-1.40;99.90;;;;;;5014001;28;20050;-77
2024/01/17 04:13:05;;;;;;;5.83;3.00;;;-1.40;99.90;;;;;;5034339;28;20486;-77
2024/01/17 04:15:32;;;;;;;6.10;2.90;;;-1.40;99.90;;;;;;5003929;28;20513;-78
2024/01/17 04:17:59;;;;;;;6.00;2.90;;;-1.40;99.90;;;;;;4998556;28;20050;-78
2024/01/17 04:20:26;;;;;;;9.70;3.10;;;-1.40;99.90;;;;;;5011266;28;20107;-78
2024/01/17 04:22:54;;;;;;;8.23;3.50;;;-1.40;99.90;;;;;;5017732;28;20057;-78
2024/01/17 04:25:21;;;;;;;7.77;2.93;;;-1.40;99.90;;;;;;5017528;28;20474;-78
2024/01/17 04:27:48;;;;;;;5.97;3.50;;;-1.40;99.90;;;;;;5030099;28;20048;-78
2024/01/17 04:30:15;;;;;;;5.73;2.33;;;-1.50;99.90;;;;;;5033845;28;20049;-78
2024/01/17 04:32:42;;;;;;;5.27;2.87;;;-1.50;99.90;;;;;;5033978;28;20073;-78
2024/01/17 04:35:11;;;;;;;5.97;2.73;;;-1.40;99.90;;;;;;5001411;28;20053;-78
2024/01/17 04:37:39;;;;;;;6.90;3.47;;;-1.50;99.90;;;;;;5017763;28;20052;-78
2024/01/17 04:40:07;;;;;;;6.00;3.43;;;-1.50;99.90;;;;;;5017088;28;20050;-78
2024/01/17 04:42:34;;;;;;;6.40;3.10;;;-1.50;99.90;;;;;;5013237;28;20046;-78
2024/01/17 04:45:03;;;;;;;7.00;3.40;;;-1.50;99.90;;;;;;5011089;28;20100;-78
2024/01/17 04:47:33;;;;;;;6.32;2.95;;;-1.50;99.90;;;;;;5034952;28;20041;-78
2024/01/17 04:50:00;;;;;;;5.93;2.83;;;-1.50;99.90;;;;;;5034699;28;20045;-78
2024/01/17 04:52:28;;;;;;;5.60;3.03;;;-1.50;99.90;;;;;;5001263;28;20056;-78
2024/01/17 04:54:55;;;;;;;5.53;2.60;;;-1.50;99.90;;;;;;5017147;28;20041;-78
2024/01/17 04:57:22;;;;;;;5.83;2.47;;;-1.50;99.90;;;;;;5033546;28;20041;-78
2024/01/17 04:59:49;;;;;;;4.10;1.93;;;-1.50;99.90;;;;;;5015593;28;20045;-78
2024/01/17 05:02:16;;;;;;;4.87;2.27;;;-1.50;99.90;;;;;;5017160;28;20095;-79
2024/01/17 05:04:44;;;;;;;5.10;2.37;;;-1.50;99.90;;;;;;4977954;28;20041;-78
2024/01/17 05:07:11;;;;;;;7.03;2.13;;;-1.50;99.90;;;;;;5015833;28;20089;-78
2024/01/17 05:09:38;;;;;;;5.77;2.53;;;-1.50;99.90;;;;;;5016873;28;20046;-78
2024/01/17 05:12:08;;;;;;;7.07;2.73;;;-1.50;99.90;;;;;;5013933;28;20513;-78
2024/01/17 05:14:38;;;;;;;6.57;3.23;;;-1.50;99.90;;;;;;5001283;28;20128;-78
2024/01/17 05:17:06;;;;;;;5.87;3.33;;;-1.50;99.90;;;;;;5016729;28;20107;-78
2024/01/17 05:19:35;;;;;;;5.40;3.07;;;-1.50;99.90;;;;;;5016537;28;20485;-78
2024/01/17 05:22:03;;;;;;;7.23;3.20;;;-1.50;99.90;;;;;;5010780;28;20049;-78
2024/01/17 05:24:30;;;;;;;7.43;4.23;;;-1.50;99.90;;;;;;5015086;28;20625;-78
2024/01/17 05:26:59;;;;;;;5.87;3.33;;;-1.50;99.90;;;;;;5016854;28;20033;-78
2024/01/17 05:29:26;;;;;;;7.00;3.70;;;-1.60;99.90;;;;;;4984165;28;20450;-79
2024/01/17 05:31:53;;;;;;;5.83;2.77;;;-1.50;99.90;;;;;;4990782;28;20042;-78
2024/01/17 05:34:20;;;;;;;6.37;2.83;;;-1.60;99.90;;;;;;4976205;28;20065;-78
2024/01/17 05:36:47;;;;;;;5.13;2.40;;;-1.50;99.90;;;;;;5016243;28;20049;-78
2024/01/17 05:39:14;;;;;;;4.20;2.07;;;-1.60;99.90;;;;;;5016279;28;20069;-79
2024/01/17 05:41:41;;;;;;;3.80;2.10;;;-1.50;99.90;;;;;;5015063;28;20047;-79
2024/01/17 05:44:08;;;;;;;3.97;1.60;;;-1.50;99.90;;;;;;4997482;28;20050;-79
2024/01/17 05:46:38;;;;;;;5.57;2.50;;;-1.50;99.90;;;;;;5014459;28;20406;-78
2024/01/17 05:49:05;;;;;;;6.60;2.67;;;-1.50;99.90;;;;;;5015928;28;20103;-78
2024/01/17 05:51:32;;;;;;;7.10;3.20;;;-1.50;99.90;;;;;;5032070;28;20045;-79
2024/01/17 05:53:59;;;;;;;6.00;2.67;;;-1.60;99.90;;;;;;5016125;28;20041;-79
2024/01/17 05:56:26;;;;;;;5.67;2.70;;;-1.60;99.90;;;;;;5016168;28;20045;-79
2024/01/17 05:58:53;;;;;;;6.33;3.10;;;-1.60;99.90;;;;;;5014043;28;20107;-78
2024/01/17 06:01:21;;;;;;;5.40;2.70;;;-1.60;99.90;;;;;;4984302;28;20084;-78
2024/01/17 06:03:48;;;;;;;4.97;2.53;;;-1.60;99.90;;;;;;4998666;28;20053;-78
2024/01/17 06:06:16;;;;;;;4.80;2.27;;;-1.60;99.90;;;;;;4991268;28;20050;-78
2024/01/17 06:08:43;;;;;;;5.00;1.90;;;-1.60;99.90;;;;;;5011239;28;20045;-79
2024/01/17 06:11:10;;;;;;;4.53;1.80;;;-1.60;99.90;;;;;;5033320;28;20037;-79
2024/01/17 06:13:37;;;;;;;4.63;1.73;;;-1.60;99.90;;;;;;5002626;28;20046;-78
2024/01/17 06:16:04;;;;;;;5.27;2.07;;;-1.60;99.90;;;;;;5014810;28;20041;-78
2024/01/17 06:18:31;;;;;;;4.20;2.33;;;-1.50;99.90;;;;;;4999329;28;20050;-78
2024/01/17 06:20:58;;;;;;;4.00;2.03;;;-1.60;99.90;;;;;;5001754;28;20120;-78
2024/01/17 06:23:25;;;;;;;5.80;2.73;;;-1.60;99.90;;;;;;5012024;28;20053;-78
2024/01/17 06:25:52;;;;;;;4.23;2.17;;;-1.60;99.90;;;;;;4998605;28;20103;-78
2024/01/17 06:28:19;;;;;;;6.50;2.07;;;-1.60;99.90;;;;;;5031765;28;20045;-78
2024/01/17 06:30:46;;;;;;;4.00;1.87;;;-1.60;99.90;;;;;;4999246;28;20095;-78
2024/01/17 06:33:14;;;;;;;4.87;2.53;;;-1.60;99.90;;;;;;5015373;28;20041;-78
2024/01/17 06:35:41;;;;;;;5.83;2.70;;;-1.60;99.90;;;;;;5031721;28;20045;-79
2024/01/17 06:38:08;;;;;;;6.03;2.37;;;-1.50;99.90;;;;;;5015276;28;20053;-79
2024/01/17 06:40:35;;;;;;;5.10;2.57;;;-1.60;99.90;;;;;;4987383;28;20880;-79
2024/01/17 06:43:07;;;;;;;5.45;2.45;;;-1.50;99.90;;;;;;5009513;28;20065;-78
2024/01/17 06:45:34;;;;;;;5.90;2.70;;;-1.60;99.90;;;;;;5015291;28;20131;-79
2024/01/17 06:48:03;;;;;;;5.30;3.53;;;-1.50;99.90;;;;;;5032854;28;21041;-78
2024/01/17 06:50:30;;;;;;;6.37;2.63;;;-1.50;99.90;;;;;;5012214;28;20046;-78
2024/01/17 06:52:57;;;;;;;5.67;2.80;;;-1.60;99.90;;;;;;5006375;28;20096;-79
2024/01/17 06:55:25;;;;;;;4.90;2.43;;;-1.60;99.90;;;;;;4985272;28;20509;-79
2024/01/17 06:57:52;;;;;;;5.37;2.90;;;-1.60;99.90;;;;;;5014169;28;20092;-79
2024/01/17 07:00:20;;;;;;;6.13;3.43;;;-1.60;99.90;;;;;;5014993;28;20383;-79
2024/01/17 07:02:47;;;;;;;4.43;2.47;;;-1.60;99.90;;;;;;5031490;28;20045;-80
2024/01/17 07:05:15;;;;;;;8.10;2.77;;;-1.60;99.90;;;;;;4999170;28;20054;-78
2024/01/17 07:07:42;;;;;;;5.07;2.63;;;-1.60;99.90;;;;;;5031601;28;20042;-79
2024/01/17 07:10:09;;;;;;;6.20;2.60;;;-1.60;99.90;;;;;;4997051;28;20042;-79
2024/01/17 07:12:36;;;;;;;6.47;3.30;;;-1.60;99.90;;;;;;5021518;28;20117;-79
2024/01/17 07:15:03;;;;;;;5.83;2.80;;;-1.60;99.90;;;;;;4987974;28;20053;-78
2024/01/17 07:17:32;;;;;;;5.20;2.10;;;-1.60;99.90;;;;;;5011803;28;20074;-78
2024/01/17 07:19:59;;;;;;;5.23;2.47;;;-1.60;99.90;;;;;;4995328;28;20042;-79
2024/01/17 07:22:26;;;;;;;4.77;2.17;;;-1.60;99.90;;;;;;5009171;28;20062;-78
2024/01/17 07:24:53;;;;;;;5.43;2.20;;;-1.60;99.90;;;;;;5014096;28;20517;-78
2024/01/17 07:27:21;;;;;;;5.27;2.30;;;-1.60;99.90;;;;;;5022251;28;20048;-78
2024/01/17 07:29:48;;;;;;;5.40;2.43;;;-1.50;99.90;;;;;;5014270;28;20049;-78
2024/01/17 07:32:15;;;;;;;4.77;2.00;;;-1.50;99.90;;;;;;5020435;28;20048;-78
2024/01/17 07:34:42;;;;;;;3.80;1.50;;;-1.50;99.90;;;;;;5029634;28;20474;-78
2024/01/17 07:37:10;;;;;;;6.23;1.90;;;-1.50;99.90;;;;;;5002376;28;20437;-78
2024/01/17 07:39:43;;;;;;;4.53;2.17;;;-1.50;99.90;;;;;;4989804;28;20045;-78
2024/01/17 07:42:10;;;;;;;3.77;1.43;;;-1.40;99.90;;;;;;4969806;28;20152;-78
2024/01/17 07:44:37;;;;;;;4.17;2.03;;;-1.40;99.90;;;;;;5010911;28;20049;-78
2024/01/17 07:47:04;;;;;;;4.77;2.00;;;-1.40;99.90;;;;;;5014851;28;20073;-79
2024/01/17 07:49:39;;;;;;;5.13;2.07;;;-1.40;99.90;;;;;;4992817;28;20037;-78
2024/01/17 07:52:06;;;;;;;4.27;2.00;;;-1.40;99.90;;;;;;5015687;28;20041;-78
2024/01/17 07:54:33;;;;;;;4.67;2.10;;;-1.40;99.90;;;;;;5011556;28;20041;-78
2024/01/17 07:57:00;;;;;;;4.83;1.93;;;-1.40;99.90;;;;;;5033810;28;20056;-78
2024/01/17 07:59:30;;;;;;;3.20;1.90;;;-1.40;99.90;;;;;;4995491;28;20038;-78
2024/01/17 08:01:58;;;;;;;4.27;1.70;;;-1.40;99.90;;;;;;5017933;28;20050;-78
2024/01/17 08:04:25;;;;;;;3.87;1.73;;;-1.40;99.90;;;;;;5011283;28;20053;-78
2024/01/17 08:06:52;;;;;;;3.97;1.73;;;-1.40;99.90;;;;;;4985122;28;20108;-78
2024/01/17 08:09:21;;;;;;;4.47;2.00;;;-1.40;99.90;;;;;;4995707;28;20477;-79
2024/01/17 08:11:51;;;;;;;4.33;1.63;;;-1.40;99.90;;;;;;5010580;28;20046;-78
2024/01/17 08:14:18;;;;;;;3.83;1.80;;;-1.30;99.90;;;;;;5033471;28;20049;-79
2024/01/17 08:16:47;;;;;;;6.27;2.40;;;-1.30;99.90;;;;;;5010614;28;20053;-79
2024/01/17 08:19:14;;;;;;;4.00;1.53;;;-1.30;99.90;;;;;;5017497;28;20049;-78
2024/01/17 08:21:42;;;;;;;4.13;1.67;;;-1.30;99.90;;;;;;5033940;28;20052;-78
2024/01/17 08:24:09;;;;;;;6.27;2.10;;;-1.20;99.90;;;;;;5017213;28;20207;-79
2024/01/17 08:26:39;;;;;;;4.70;1.40;;;-1.20;99.90;;;;;;5019498;28;20046;-78
2024/01/17 08:29:06;;;;;;;3.63;1.43;;;-1.10;99.90;;;;;;5024498;28;20076;-78
2024/01/17 08:31:33;;;;;;;3.87;1.60;;;-1.10;99.90;;;;;;5017200;28;20053;-77
2024/01/17 08:34:03;;;;;;;3.70;1.53;;;-1.10;99.90;;;;;;5034756;28;20477;-81
2024/01/17 08:36:33;;;;;;;2.77;0.90;;;-1.00;99.90;;;;;;5018371;28;20560;-77
2024/01/17 08:39:00;;;;;;;3.30;1.43;;;-1.00;99.90;;;;;;5032600;28;20482;-77
2024/01/17 08:41:27;;;;;;;3.73;1.10;;;-0.90;99.90;;;;;;5000940;28;20509;-77
2024/01/17 08:43:55;;;;;;;4.17;1.50;;;-0.90;99.90;;;;;;5017262;28;20049;-79
2024/01/17 08:46:21;;;;;;;3.33;1.50;;;-0.90;99.90;;;;;;5033226;28;20425;-78
2024/01/17 08:48:49;;;;;;;3.47;1.57;;;-0.80;99.90;;;;;;5016945;28;20431;-77
2024/01/17 08:51:17;;;;;;;4.17;1.83;;;-0.80;99.90;;;;;;5013506;28;20046;-78
2024/01/17 08:53:47;;;;;;;3.77;1.90;;;-0.80;99.90;;;;;;5022029;28;20034;-78
2024/01/17 08:56:16;;;;;;;3.42;1.40;;;-0.80;99.90;;;;;;5014259;28;20147;-78
2024/01/17 08:58:44;;;;;;;5.43;2.17;;;-0.70;99.90;;;;;;5029820;28;20052;-78
2024/01/17 09:01:11;;;;;;;5.50;1.93;;;-0.70;99.90;;;;;;5000410;28;20049;-78
2024/01/17 09:03:39;;;;;;;2.83;1.40;;;-0.70;99.90;;;;;;5016619;28;20075;-78
2024/01/17 09:06:06;;;;;;;5.27;2.33;;;-0.70;99.90;;;;;;4997530;28;20422;-77
2024/01/17 09:08:33;;;;;;;5.80;2.07;;;-0.60;99.90;;;;;;5010294;28;20041;-78
2024/01/17 09:11:01;;;;;;;3.77;1.80;;;-0.60;99.90;;;;;;5000540;28;20046;-78
2024/01/17 09:13:28;;;;;;;3.77;1.60;;;-0.60;99.90;;;;;;5032897;28;20101;-87
2024/01/17 09:15:55;;;;;;;4.00;1.70;;;-0.50;99.90;;;;;;5003853;28;20054;-78
2024/01/17 09:18:22;;;;;;;3.33;1.80;;;-0.50;99.90;;;;;;4990717;28;20053;-79
2024/01/17 09:20:52;;;;;;;3.07;1.50;;;-0.50;99.90;;;;;;5001309;28;20045;-79
2024/01/17 09:23:19;;;;;;;5.07;1.93;;;-0.40;99.90;;;;;;4993610;28;20056;-78
2024/01/17 09:25:46;;;;;;;5.67;2.10;;;-0.40;99.90;;;;;;5025566;28;20048;-78
2024/01/17 09:28:14;;;;;;;5.93;2.40;;;-0.40;99.90;;;;;;5002157;28;20045;-78
2024/01/17 09:30:41;;;;;;;3.90;1.60;;;-0.40;99.90;;;;;;4989722;28;20506;-78
2024/01/17 09:33:08;;;;;;;3.90;1.87;;;-0.30;99.90;;;;;;4999818;28;20073;-79
2024/01/17 09:35:36;;;;;;;5.23;2.13;;;-0.30;99.90;;;;;;4999882;28;20513;-78
2024/01/17 09:38:20;;;;;;;4.67;1.90;;;-0.20;99.90;;;;;;5017836;28;20050;-79
2024/01/17 09:40:49;;;;;;;5.43;2.23;;;-0.20;99.90;;;;;;5015909;28;20425;-79
2024/01/17 09:43:17;;;;;;;5.03;1.70;;;-0.20;99.90;;;;;;5023602;28;20041;-78
2024/01/17 09:45:46;;;;;;;4.07;1.70;;;-0.10;99.90;;;;;;5008448;28;20049;-78
2024/01/17 09:48:16;;;;;;;3.73;1.43;;;-0.10;99.90;;;;;;5027573;28;20049;-78
2024/01/17 09:50:46;;;;;;;4.07;1.90;;;-0.10;99.90;;;;;;5015758;28;20108;-78
2024/01/17 09:53:15;;;;;;;4.33;1.67;;;0.00;99.90;;;;;;5032067;28;20045;-78
2024/01/17 09:55:47;;;;;;;3.47;1.50;;;0.00;99.90;;;;;;5026672;28;20038;-79
2024/01/17 09:58:15;;;;;;;3.17;1.63;;;0.10;99.90;;;;;;5024525;28;20045;-78
2024/01/17 10:00:43;;;;;;;5.30;2.03;;;0.10;99.90;;;;;;5032146;28;20111;-79
2024/01/17 10:03:20;;;;;;;4.30;1.97;;;0.10;99.90;;;;;;5025546;28;20092;-78
2024/01/17 10:05:50;;;;;;;4.27;2.10;;;0.20;99.90;;;;;;5020605;28;20147;-79
2024/01/17 10:08:18;;;;;;;4.07;2.50;;;0.20;99.90;;;;;;5011977;28;20100;-79
2024/01/17 10:10:45;;;;;;;5.17;2.23;;;0.20;99.90;;;;;;5029721;28;20394;-87
2024/01/17 10:13:12;;;;;;;6.03;2.20;;;0.30;99.90;;;;;;4999429;28;20414;-79
2024/01/17 10:15:46;;;;;;;4.47;1.60;;;0.30;99.90;;;;;;5031725;28;20038;-79
2024/01/17 10:18:13;;;;;;;3.23;1.23;;;0.30;99.90;;;;;;4999470;28;20452;-78
2024/01/17 10:20:42;;;;;;;5.60;1.93;;;0.30;99.90;;;;;;4999307;28;20056;-78
2024/01/17 10:23:10;;;;;;;5.77;2.00;;;0.40;99.90;;;;;;5023751;28;20066;-77
2024/01/17 10:25:38;;;;;;;5.00;2.00;;;0.40;99.90;;;;;;4980028;28;20513;-78
2024/01/17 10:28:08;;;;;;;5.43;2.40;;;0.40;99.90;;;;;;4995799;28;20559;-78
2024/01/17 10:30:39;;;;;;;5.30;2.50;;;0.50;99.90;;;;;;4999060;28;20527;-77
2024/01/17 10:33:09;;;;;;;5.70;3.17;;;0.50;99.90;;;;;;5014805;28;20386;-76
2024/01/17 10:35:37;;;;;;;5.83;3.47;;;0.50;99.90;;;;;;5009579;28;20042;-77
2024/01/17 10:38:04;;;;;;;7.33;2.73;;;0.50;99.90;;;;;;4995742;28;20049;-77
2024/01/17 10:40:31;;;;;;;5.67;2.77;;;0.50;99.90;;;;;;5002877;28;20049;-77
2024/01/17 10:43:12;;;;;;;6.73;3.00;;;0.60;99.90;;;;;;5031471;28;20444;-78
2024/01/17 10:45:43;;;;;;;5.38;2.63;;;0.60;99.90;;;;;;4999488;28;20117;-78
2024/01/17 10:48:10;;;;;;;4.00;1.97;;;0.60;99.90;;;;;;5025221;28;20049;-77
2024/01/17 10:50:37;;;;;;;5.33;2.60;;;0.70;99.90;;;;;;4996286;28;20041;-76
2024/01/17 10:53:06;;;;;;;7.03;3.33;;;0.70;99.90;;;;;;4987911;28;20049;-77
2024/01/17 10:55:35;;;;;;;5.83;3.60;;;0.70;99.90;;;;;;5029734;28;20045;-76
2024/01/17 10:58:11;;;;;;;7.43;3.50;;;0.60;99.90;;;;;;5031391;28;20387;-77
2024/01/17 11:00:42;;;;;;;6.97;3.13;;;0.60;99.90;;;;;;5046074;28;20038;-75
2024/01/17 11:03:17;;;;;;;5.90;3.10;;;0.70;99.90;;;;;;5034325;28;20529;-76
2024/01/17 11:05:50;;;;;;;6.17;3.27;;;0.60;99.90;;;;;;5031165;28;20069;-75
2024/01/17 11:08:21;;;;;;;7.40;3.57;;;0.60;99.90;;;;;;5023962;28;20406;-76
2024/01/17 11:10:50;;;;;;;8.43;4.10;;;0.60;99.90;;;;;;5013511;28;20410;-76
2024/01/17 11:13:19;;;;;;;5.97;3.40;;;0.60;99.90;;;;;;5027042;28;20091;-75
2024/01/17 11:15:48;;;;;;;6.17;3.47;;;0.60;99.90;;;;;;5021701;28;20033;-76
2024/01/17 11:18:17;;;;;;;6.97;3.50;;;0.60;99.90;;;;;;5025840;28;20048;-78
2024/01/17 11:20:45;;;;;;;6.67;2.97;;;0.70;99.90;;;;;;5034982;28;20072;-77
2024/01/17 11:23:43;;;;;;;6.53;3.53;;;0.70;99.90;;;;;;5015387;28;20053;-81
2024/01/17 11:26:28;;;;;;;6.20;2.87;;;0.70;99.90;;;;;;5015490;28;20410;-76
2024/01/17 11:28:56;;;;;;;5.00;3.37;;;0.70;99.90;;;;;;5036038;28;20120;-78
2024/01/17 11:31:33;;;;;;;4.93;2.47;;;0.70;99.90;;;;;;5004603;28;20046;-78
2024/01/17 11:34:01;;;;;;;4.63;2.27;;;0.80;99.90;;;;;;5010542;28;20092;-77
2024/01/17 11:36:45;;;;;;;4.10;2.00;;;0.80;99.90;;;;;;5007927;28;20503;-77
2024/01/17 11:39:17;;;;;;;6.10;2.47;;;0.90;99.90;;;;;;5024840;28;20057;-77
2024/01/17 11:41:45;;;;;;;4.93;2.38;;;0.90;99.90;;;;;;4999131;28;20041;-77
2024/01/17 11:44:17;;;;;;;3.90;1.97;;;0.90;99.90;;;;;;5034634;28;20041;-76
2024/01/17 11:46:49;;;;;;;4.22;1.83;;;1.00;99.90;;;;;;4988500;28;20046;-77
2024/01/17 11:49:38;;;;;;;5.93;2.25;;;1.00;99.90;;;;;;5016616;28;20124;-77
2024/01/17 11:52:33;;;;;;;4.27;2.13;;;1.00;99.90;;;;;;5028864;28;20038;-76
2024/01/17 11:55:01;;;;;;;4.77;2.10;;;1.00;99.90;;;;;;5028062;28;20068;-77
2024/01/17 11:57:32;;;;;;;4.47;1.90;;;1.10;99.90;;;;;;5014794;28;20060;-77
2024/01/17 12:00:04;;;;;;;6.23;3.37;;;1.10;99.90;;;;;;5027438;28;20056;-77
2024/01/17 12:02:40;;;;;;;5.47;2.67;;;1.10;99.90;;;;;;5031114;28;20050;-78
2024/01/17 12:05:08;;;;;;;4.50;2.30;;;1.10;99.90;;;;;;5014478;28;20104;-77
2024/01/17 12:07:40;;;;;;;4.23;2.17;;;1.10;99.90;;;;;;5017615;28;20045;-77
2024/01/17 12:10:12;;;;;;;;;;;1.10;99.90;;;;;;5014964;28;20445;-75
2024/01/17 12:12:43;;;;;;;4.10;2.17;;;1.10;99.90;;;;;;5017105;28;19928;-76
2024/01/17 12:15:12;;;;;;;4.47;1.95;;;1.10;99.90;;;;;;5034034;28;20045;-76
2024/01/17 12:17:40;;;;;;;4.67;2.43;;;1.10;99.90;;;;;;5001576;28;20393;-76
2024/01/17 12:20:08;;;;;;;4.73;1.87;;;1.10;99.90;;;;;;5001669;28;20083;-77
2024/01/17 12:22:35;;;;;;;8.10;3.13;;;1.20;99.90;;;;;;5017369;28;20115;-76
2024/01/17 12:25:03;;;;;;;7.33;3.03;;;1.20;99.90;;;;;;5017476;28;20050;-76
2024/01/17 12:27:32;;;;;;;6.17;3.07;;;1.20;99.90;;;;;;5017336;28;20496;-76
2024/01/17 12:30:06;;;;;;;5.60;2.10;;;1.20;99.90;;;;;;5033664;28;20045;-76
2024/01/17 12:32:37;;;;;;;5.07;2.10;;;1.20;99.90;;;;;;5033613;28;20056;-77
2024/01/17 12:35:05;;;;;;;5.30;2.30;;;1.20;99.90;;;;;;5011366;28;20050;-79
2024/01/17 12:37:32;;;;;;;5.23;2.27;;;1.30;99.90;;;;;;5017398;28;20143;-77
2024/01/17 12:39:59;;;;;;;5.43;2.70;;;1.30;99.90;;;;;;5016119;28;20402;-77
2024/01/17 12:42:26;;;;;;;6.63;3.00;;;1.30;99.90;;;;;;5033663;28;20045;-76
2024/01/17 12:44:54;;;;;;;7.43;3.03;;;1.30;99.90;;;;;;4984882;28;20076;-78
2024/01/17 12:47:21;;;;;;;4.80;2.43;;;1.30;99.90;;;;;;5013780;28;20121;-78
2024/01/17 12:49:48;;;;;;;5.97;2.90;;;1.30;99.90;;;;;;5027134;28;20124;-77
2024/01/17 12:52:18;;;;;;;6.60;2.30;;;1.30;99.90;;;;;;5000835;28;20042;-78
2024/01/17 12:54:46;;;;;;;6.97;2.90;;;1.40;99.90;;;;;;5033233;28;20041;-79
2024/01/17 12:57:13;;;;;;;4.50;2.20;;;1.40;99.90;;;;;;5017022;28;20045;-79